Time;durP1;ratioP1;P1;durP2;ratioP2;P2;SDS_P1;SDS_P2;PMS_P1;PMS_P2;Temp;Humidity;BMP_temperature;BMP_pressure;BME280_temperature;BME280_humidity;BME280_pressure;Samples;Min_cycle;Max_cycle;Signal;HPM_P1;HPM_P2
2022/01/29 00:01:06;;;;;;;23.15;11.98;;;6.90;99.90;;;;;;5113922;28;20472;-68
2022/01/29 00:03:35;;;;;;;26.25;12.82;;;6.80;99.90;;;;;;5113307;28;20043;-68
2022/01/29 00:06:02;;;;;;;25.75;13.15;;;7.10;99.90;;;;;;5112571;28;20044;-73
2022/01/29 00:08:28;;;;;;;29.20;13.13;;;7.20;99.90;;;;;;5113740;28;20476;-68
2022/01/29 00:11:00;;;;;;;24.23;12.00;;;7.50;99.90;;;;;;5114655;28;20044;-70
2022/01/29 00:13:26;;;;;;;25.58;12.20;;;6.80;99.90;;;;;;5113805;28;20044;-69
2022/01/29 00:15:51;;;;;;;22.25;12.30;;;7.10;99.90;;;;;;5113769;28;20082;-68
2022/01/29 00:18:17;;;;;;;28.02;11.90;;;7.00;99.90;;;;;;5113744;28;20048;-69
2022/01/29 00:20:43;;;;;;;26.23;12.60;;;6.80;99.90;;;;;;5112444;28;20039;-68
2022/01/29 00:23:09;;;;;;;25.30;12.45;;;6.90;99.90;;;;;;5112148;28;20135;-71
2022/01/29 00:25:35;;;;;;;24.50;11.43;;;6.80;99.90;;;;;;5112659;28;20040;-71
2022/01/29 00:28:00;;;;;;;24.27;11.57;;;7.00;99.90;;;;;;5095491;28;20100;-70
2022/01/29 00:30:35;;;;;;;22.42;11.93;;;6.80;99.90;;;;;;5115043;28;20144;-70
2022/01/29 00:33:01;;;;;;;26.13;12.30;;;7.20;99.90;;;;;;5116739;28;20054;-70
2022/01/29 00:35:27;;;;;;;25.80;11.77;;;6.80;99.90;;;;;;5117328;28;20047;-70
2022/01/29 00:37:53;;;;;;;23.40;12.45;;;6.90;99.90;;;;;;5116996;28;20047;-70
2022/01/29 00:40:20;;;;;;;21.30;12.57;;;7.30;99.90;;;;;;5116909;28;20498;-70
2022/01/29 00:42:46;;;;;;;24.65;11.95;;;7.20;99.90;;;;;;5099344;28;20047;-69
2022/01/29 00:45:12;;;;;;;21.95;12.00;;;6.80;99.90;;;;;;5099939;28;20050;-68
2022/01/29 00:47:38;;;;;;;23.98;11.32;;;6.80;99.90;;;;;;5099170;28;20043;-68
2022/01/29 00:50:04;;;;;;;23.40;12.05;;;7.20;99.90;;;;;;5115511;28;20040;-69
2022/01/29 00:52:30;;;;;;;20.35;12.80;;;7.00;99.90;;;;;;5115459;28;20052;-68
2022/01/29 00:54:55;;;;;;;20.90;12.20;;;6.90;99.90;;;;;;5115839;28;20043;-68
2022/01/29 00:57:21;;;;;;;21.75;12.95;;;6.90;99.90;;;;;;5098773;28;20097;-69
2022/01/29 00:59:47;;;;;;;23.42;13.55;;;6.90;99.90;;;;;;5115784;28;20047;-69
2022/01/29 01:02:13;;;;;;;22.15;12.57;;;6.90;99.90;;;;;;5115924;28;20047;-68
2022/01/29 01:04:39;;;;;;;22.17;12.40;;;6.90;99.90;;;;;;5116735;28;20043;-70
2022/01/29 01:07:09;;;;;;;24.27;13.02;;;6.70;99.90;;;;;;5116648;28;20088;-68
2022/01/29 01:09:35;;;;;;;25.40;13.15;;;6.80;99.90;;;;;;5115373;28;20044;-69
2022/01/29 01:12:02;;;;;;;20.45;12.15;;;6.70;99.90;;;;;;5116331;28;20075;-68
2022/01/29 01:14:27;;;;;;;21.70;12.13;;;6.90;99.90;;;;;;5116900;28;20050;-68
2022/01/29 01:16:53;;;;;;;17.58;12.10;;;6.70;99.90;;;;;;5116612;28;20472;-69
2022/01/29 01:19:19;;;;;;;18.20;11.80;;;6.70;99.90;;;;;;5115974;28;20503;-68
2022/01/29 01:21:45;;;;;;;20.60;12.65;;;7.10;99.90;;;;;;5115544;28;20083;-69
2022/01/29 01:24:11;;;;;;;22.00;12.25;;;6.90;99.90;;;;;;5115298;28;20087;-69
2022/01/29 01:26:36;;;;;;;20.98;12.13;;;7.30;99.90;;;;;;5098420;28;20548;-68
2022/01/29 01:29:03;;;;;;;20.45;11.80;;;6.90;99.90;;;;;;5115182;28;20044;-68
2022/01/29 01:31:28;;;;;;;17.48;11.30;;;6.90;99.90;;;;;;5115370;28;20043;-69
2022/01/29 01:33:54;;;;;;;20.27;11.68;;;6.90;99.90;;;;;;5116511;28;20386;-69
2022/01/29 01:36:24;;;;;;;19.95;11.63;;;7.10;99.90;;;;;;5114872;28;20569;-70
2022/01/29 01:39:00;;;;;;;18.70;11.43;;;6.90;99.90;;;;;;5115865;28;20515;-72
2022/01/29 01:41:27;;;;;;;18.65;11.38;;;7.20;99.90;;;;;;5115807;27;20054;-70
2022/01/29 01:44:00;;;;;;;16.77;11.65;;;7.20;99.90;;;;;;5115970;28;20391;-69
2022/01/29 01:46:28;;;;;;;20.02;11.38;;;7.30;99.90;;;;;;5098149;28;20386;-68
2022/01/29 01:48:54;;;;;;;19.10;12.25;;;7.20;99.90;;;;;;5115900;28;20155;-68
2022/01/29 01:51:20;;;;;;;18.77;11.73;;;6.80;99.90;;;;;;5115562;28;20105;-68
2022/01/29 01:53:46;;;;;;;21.60;12.85;;;7.40;99.90;;;;;;5116596;28;20075;-83
2022/01/29 01:56:11;;;;;;;22.10;11.82;;;6.80;99.90;;;;;;5081649;28;20047;-84
2022/01/29 01:58:37;;;;;;;19.33;11.45;;;7.00;99.90;;;;;;5114608;28;20035;-82
2022/01/29 02:01:03;;;;;;;20.55;11.23;;;7.50;99.90;;;;;;5114717;28;20047;-84
2022/01/29 02:03:29;;;;;;;19.80;11.95;;;7.20;99.90;;;;;;5115365;28;20491;-81
2022/01/29 02:05:56;;;;;;;21.05;12.05;;;7.40;99.90;;;;;;5097686;28;20100;-83
2022/01/29 02:08:22;;;;;;;24.30;12.32;;;7.20;99.90;;;;;;5113934;28;20480;-82
2022/01/29 02:10:49;;;;;;;22.20;12.82;;;7.30;99.90;;;;;;5115231;28;20040;-83
2022/01/29 02:13:15;;;;;;;23.00;12.70;;;7.00;99.90;;;;;;5114267;28;20502;-76
2022/01/29 02:15:41;;;;;;;20.58;11.35;;;7.40;99.90;;;;;;5115420;28;20048;-83
2022/01/29 02:18:14;;;;;;;22.73;12.32;;;7.30;99.90;;;;;;5115085;28;20499;-83
2022/01/29 02:20:42;;;;;;;20.30;12.48;;;7.30;99.90;;;;;;5097738;28;20054;-83
2022/01/29 02:23:08;;;;;;;22.00;12.70;;;7.20;99.90;;;;;;5113831;28;20479;-84
2022/01/29 02:25:45;;;;;;;23.15;11.27;;;7.40;99.90;;;;;;5097370;28;20058;-83
2022/01/29 02:28:15;;;;;;;24.60;12.60;;;7.20;99.90;;;;;;5115711;28;20083;-80
2022/01/29 02:30:47;;;;;;;29.63;13.15;;;7.60;99.90;;;;;;5115007;28;20086;-82
2022/01/29 02:33:15;;;;;;;29.65;14.63;;;7.30;99.90;;;;;;5113907;28;20048;-86
2022/01/29 02:35:46;;;;;;;29.27;14.05;;;7.20;99.90;;;;;;5113849;28;20082;-82
2022/01/29 02:38:14;;;;;;;22.98;12.82;;;7.50;99.90;;;;;;5097287;28;20495;-84
2022/01/29 02:40:49;;;;;;;27.98;13.30;;;7.60;99.90;;;;;;5114802;28;20079;-83
2022/01/29 02:43:22;;;;;;;25.85;13.98;;;7.30;99.90;;;;;;5081865;28;20039;-83
2022/01/29 02:45:50;;;;;;;24.38;13.15;;;7.50;99.90;;;;;;5097836;28;20051;-85
2022/01/29 02:48:16;;;;;;;24.13;13.50;;;7.50;99.90;;;;;;5113566;28;20046;-83
2022/01/29 02:50:42;;;;;;;24.50;12.70;;;7.40;99.90;;;;;;5079766;28;20051;-83
2022/01/29 02:53:08;;;;;;;24.98;13.18;;;7.30;99.90;;;;;;5096161;28;20059;-81
2022/01/29 02:55:34;;;;;;;26.98;13.27;;;7.50;99.90;;;;;;5079743;28;20120;-79
2022/01/29 02:58:00;;;;;;;26.30;12.90;;;7.50;99.90;;;;;;5115161;28;20044;-85
2022/01/29 03:00:26;;;;;;;21.98;12.73;;;7.70;99.90;;;;;;5113493;28;20108;-84
2022/01/29 03:02:52;;;;;;;29.00;14.05;;;7.80;99.90;;;;;;5079800;28;20360;-87
2022/01/29 03:05:17;;;;;;;27.20;12.68;;;7.80;99.90;;;;;;5096652;28;20101;-84
2022/01/29 03:07:43;;;;;;;22.92;12.65;;;7.90;99.90;;;;;;5079461;28;20035;-82
2022/01/29 03:10:09;;;;;;;27.20;13.23;;;7.60;99.90;;;;;;5079444;28;20046;-80
2022/01/29 03:12:37;;;;;;;25.98;13.40;;;7.50;99.90;;;;;;5114780;28;20120;-85
2022/01/29 03:15:04;;;;;;;26.08;13.07;;;7.50;99.90;;;;;;5113414;28;20496;-86
2022/01/29 03:17:30;;;;;;;29.20;13.13;;;7.50;99.90;;;;;;5113033;28;20051;-85
2022/01/29 03:19:56;;;;;;;23.70;12.68;;;7.30;99.90;;;;;;5096442;28;20101;-83
2022/01/29 03:22:21;;;;;;;23.92;13.02;;;7.50;99.90;;;;;;5113209;28;20507;-84
2022/01/29 03:24:47;;;;;;;27.23;12.90;;;7.70;99.90;;;;;;5113590;28;20039;-83
2022/01/29 03:27:13;;;;;;;25.20;12.82;;;8.00;99.90;;;;;;5113377;28;20040;-84
2022/01/29 03:29:38;;;;;;;27.80;13.27;;;7.80;99.90;;;;;;5079204;28;20040;-82
2022/01/29 03:32:04;;;;;;;28.73;12.10;;;7.40;99.90;;;;;;5096233;28;20103;-81
2022/01/29 03:34:30;;;;;;;22.40;12.57;;;7.60;99.90;;;;;;5113187;28;20043;-83
2022/01/29 03:36:57;;;;;;;26.52;11.45;;;7.70;99.90;;;;;;5095865;28;20054;-82
2022/01/29 03:39:25;;;;;;;19.48;11.07;;;8.00;99.90;;;;;;5096000;28;20130;-80
2022/01/29 03:41:52;;;;;;;24.75;11.77;;;7.70;99.90;;;;;;5096176;28;20138;-82
2022/01/29 03:44:18;;;;;;;23.35;12.13;;;8.00;99.90;;;;;;5096235;28;20071;-84
2022/01/29 03:46:45;;;;;;;23.60;12.07;;;7.70;99.90;;;;;;5097025;28;20082;-85
2022/01/29 03:49:11;;;;;;;21.15;12.23;;;7.80;99.90;;;;;;5095892;28;20058;-85
2022/01/29 03:51:37;;;;;;;22.77;12.00;;;8.00;99.90;;;;;;5113604;28;20051;-80
2022/01/29 03:54:03;;;;;;;23.42;11.73;;;7.80;99.90;;;;;;5114146;28;20505;-84
2022/01/29 03:56:29;;;;;;;23.52;11.43;;;7.90;99.90;;;;;;5113441;28;20040;-86
2022/01/29 03:58:54;;;;;;;22.75;11.10;;;7.80;99.90;;;;;;5113036;28;20044;-86
2022/01/29 04:01:20;;;;;;;23.95;10.52;;;7.80;99.90;;;;;;5095994;28;20052;-85
2022/01/29 04:03:46;;;;;;;24.58;11.27;;;7.90;99.90;;;;;;5078748;28;20478;-86
2022/01/29 04:06:12;;;;;;;18.00;11.38;;;7.80;99.90;;;;;;5098870;28;20126;-80
2022/01/29 04:08:43;;;;;;;18.15;10.65;;;7.70;99.90;;;;;;5116659;28;20043;-82
2022/01/29 04:11:13;;;;;;;18.92;10.93;;;8.00;99.90;;;;;;5117989;28;20044;-81
2022/01/29 04:13:43;;;;;;;16.20;9.25;;;7.80;99.90;;;;;;5117732;28;20039;-86
2022/01/29 04:16:10;;;;;;;21.30;10.85;;;8.10;99.90;;;;;;5117328;28;20051;-83
2022/01/29 04:18:36;;;;;;;20.42;10.40;;;7.90;99.90;;;;;;5099741;28;20071;-84
2022/01/29 04:21:03;;;;;;;19.27;10.73;;;7.90;99.90;;;;;;5082814;28;20043;-85
2022/01/29 04:23:29;;;;;;;20.95;10.50;;;7.90;99.90;;;;;;5116737;28;20055;-86
2022/01/29 04:25:55;;;;;;;22.33;11.27;;;7.90;99.90;;;;;;5082711;28;20403;-85
2022/01/29 04:28:25;;;;;;;16.02;9.00;;;7.90;99.90;;;;;;5099536;28;20052;-85
2022/01/29 04:30:59;;;;;;;16.25;9.63;;;8.10;99.90;;;;;;5083048;28;20055;-84
2022/01/29 04:35:51;;;;;;;19.48;9.93;;;7.90;99.90;;;;;;5116212;28;20560;-84
2022/01/29 04:38:18;;;;;;;20.40;10.05;;;8.10;99.90;;;;;;5117113;28;20071;-84
2022/01/29 04:40:44;;;;;;;17.58;9.45;;;8.20;99.90;;;;;;5082385;28;20567;-85
2022/01/29 04:43:09;;;;;;;18.60;10.00;;;8.00;99.90;;;;;;5116183;28;20122;-82
2022/01/29 04:45:35;;;;;;;20.67;9.90;;;8.40;99.90;;;;;;5099333;28;20035;-73
2022/01/29 04:48:01;;;;;;;16.98;9.98;;;8.00;99.90;;;;;;5099910;28;20390;-84
2022/01/29 04:50:27;;;;;;;18.73;9.10;;;8.70;99.90;;;;;;5117040;28;20043;-79
2022/01/29 04:52:53;;;;;;;17.55;9.55;;;8.10;99.90;;;;;;5098660;28;20091;-84
2022/01/29 04:55:19;;;;;;;19.45;10.18;;;8.10;99.90;;;;;;5117053;28;20082;-81
2022/01/29 04:57:45;;;;;;;19.08;10.23;;;8.10;99.90;;;;;;5098561;28;20096;-84
2022/01/29 05:00:19;;;;;;;16.52;9.38;;;8.20;99.90;;;;;;5081752;28;20102;-83
2022/01/29 05:02:49;;;;;;;18.38;10.48;;;8.10;99.90;;;;;;5082644;28;20483;-80
2022/01/29 05:05:15;;;;;;;19.65;10.15;;;8.10;99.90;;;;;;5115662;28;20048;-83
2022/01/29 05:07:41;;;;;;;18.40;9.82;;;8.10;99.90;;;;;;5115548;28;20094;-82
2022/01/29 05:10:07;;;;;;;17.88;9.52;;;8.20;99.90;;;;;;5116735;28;20487;-82
2022/01/29 05:12:46;;;;;;;18.60;9.45;;;7.90;99.90;;;;;;5098762;28;20054;-84
2022/01/29 05:15:28;;;;;;;18.17;9.32;;;8.30;99.90;;;;;;5100508;28;20043;-78
2022/01/29 05:28:50;;;;;;;19.08;8.98;;;8.10;99.90;;;;;;5101804;28;20258;-86
2022/01/29 05:31:16;;;;;;;17.13;8.80;;;8.20;99.90;;;;;;5116182;28;20131;-85
2022/01/29 05:33:42;;;;;;;19.65;10.00;;;8.10;99.90;;;;;;5115335;28;20394;-86
2022/01/29 05:36:08;;;;;;;18.77;9.40;;;8.30;99.90;;;;;;5098352;28;20055;-82
2022/01/29 05:38:34;;;;;;;19.20;9.57;;;8.30;99.90;;;;;;5098184;28;20039;-84
2022/01/29 05:41:01;;;;;;;17.23;10.50;;;8.10;99.90;;;;;;5115153;28;20054;-83
2022/01/29 05:43:26;;;;;;;16.40;9.95;;;8.20;99.90;;;;;;5114935;28;20046;-84
2022/01/29 05:45:52;;;;;;;16.45;9.63;;;8.30;99.90;;;;;;5098249;28;20083;-83
2022/01/29 05:48:18;;;;;;;14.23;9.23;;;8.30;99.90;;;;;;5097981;28;20134;-75
2022/01/29 05:50:43;;;;;;;16.65;9.18;;;8.60;99.90;;;;;;5098020;28;20052;-78
2022/01/29 05:53:09;;;;;;;15.52;9.50;;;8.50;99.90;;;;;;5080925;28;20475;-80
2022/01/29 05:55:35;;;;;;;16.55;9.02;;;8.20;99.90;;;;;;5114334;28;20136;-81
2022/01/29 05:58:01;;;;;;;18.10;9.20;;;8.70;99.90;;;;;;5097652;28;20040;-82
2022/01/29 06:00:27;;;;;;;17.13;9.13;;;8.30;99.90;;;;;;5080928;28;20050;-81
2022/01/29 06:03:09;;;;;;;15.43;9.05;;;8.50;99.90;;;;;;5115712;28;20043;-80
2022/01/29 06:05:36;;;;;;;13.73;9.25;;;8.50;99.90;;;;;;5098615;28;20046;-79
2022/01/29 06:08:02;;;;;;;19.38;9.45;;;8.80;99.90;;;;;;5097658;28;20507;-79
2022/01/29 06:10:28;;;;;;;17.77;9.27;;;8.40;99.90;;;;;;5115127;28;20040;-82
2022/01/29 06:13:01;;;;;;;20.98;9.93;;;8.50;99.90;;;;;;5097572;28;20069;-80
2022/01/29 06:15:27;;;;;;;17.27;9.55;;;8.30;99.90;;;;;;5097511;28;20142;-75
2022/01/29 06:17:53;;;;;;;18.20;9.85;;;8.40;99.90;;;;;;5080930;28;20391;-78
2022/01/29 06:20:19;;;;;;;18.17;9.63;;;8.30;99.90;;;;;;5114430;28;20051;-80
2022/01/29 06:22:45;;;;;;;15.75;9.38;;;8.40;99.90;;;;;;5114345;28;20117;-77
2022/01/29 06:25:11;;;;;;;18.50;9.82;;;8.60;99.90;;;;;;5114377;28;20042;-78
2022/01/29 06:27:36;;;;;;;14.85;9.95;;;8.70;99.90;;;;;;5113887;28;20043;-81
2022/01/29 06:30:03;;;;;;;17.23;8.93;;;8.70;99.90;;;;;;5097281;28;20081;-77
2022/01/29 06:32:29;;;;;;;18.13;9.52;;;8.40;99.90;;;;;;5114510;28;20131;-78
2022/01/29 06:34:55;;;;;;;16.20;9.43;;;8.60;99.90;;;;;;5096966;28;20078;-77
2022/01/29 06:37:21;;;;;;;18.23;9.32;;;8.20;99.90;;;;;;5096876;28;20051;-77
2022/01/29 06:39:47;;;;;;;16.48;9.15;;;8.50;99.90;;;;;;5097094;28;20051;-77
2022/01/29 06:42:13;;;;;;;18.58;9.30;;;8.60;99.90;;;;;;5096833;28;20043;-77
2022/01/29 06:44:39;;;;;;;17.58;9.98;;;8.40;99.90;;;;;;5114375;28;20122;-78
2022/01/29 06:47:04;;;;;;;14.18;9.07;;;8.70;99.90;;;;;;5096888;28;20044;-77
2022/01/29 06:49:31;;;;;;;17.10;9.50;;;8.30;99.90;;;;;;5114279;28;20111;-78
2022/01/29 06:51:57;;;;;;;20.77;9.05;;;8.50;99.90;;;;;;5096867;28;20263;-77
2022/01/29 06:54:22;;;;;;;14.10;8.68;;;8.70;99.90;;;;;;5114929;28;20083;-76
2022/01/29 06:56:48;;;;;;;13.30;8.05;;;8.40;99.90;;;;;;5080103;28;20490;-78
2022/01/29 06:59:14;;;;;;;17.08;8.73;;;8.30;99.90;;;;;;5080290;28;20148;-77
2022/01/29 07:01:40;;;;;;;16.73;8.52;;;8.40;99.90;;;;;;5113575;28;20053;-79
2022/01/29 07:04:05;;;;;;;15.18;8.35;;;8.90;99.90;;;;;;5113393;28;20122;-78
2022/01/29 07:06:32;;;;;;;13.60;7.78;;;8.70;99.90;;;;;;5113588;28;20040;-76
2022/01/29 07:08:58;;;;;;;16.45;8.45;;;8.20;99.90;;;;;;5113251;28;20105;-74
2022/01/29 07:11:24;;;;;;;15.95;8.30;;;8.70;99.90;;;;;;5063041;28;20055;-73
2022/01/29 07:14:00;;;;;;;14.68;7.35;;;8.50;99.90;;;;;;5114375;28;20051;-78
2022/01/29 07:16:27;;;;;;;17.13;8.13;;;9.60;99.90;;;;;;5097844;28;20403;-78
2022/01/29 07:18:53;;;;;;;13.10;7.30;;;8.60;99.90;;;;;;5079855;28;20425;-78
2022/01/29 07:21:18;;;;;;;13.50;7.25;;;8.60;99.90;;;;;;5096289;28;20091;-76
2022/01/29 07:23:44;;;;;;;14.40;7.65;;;8.80;99.90;;;;;;5113676;28;20052;-79
2022/01/29 07:26:10;;;;;;;9.27;6.95;;;8.50;99.90;;;;;;5096364;28;20047;-78
2022/01/29 07:28:36;;;;;;;14.05;7.15;;;8.80;99.90;;;;;;5113422;28;20039;-78
2022/01/29 07:31:02;;;;;;;13.80;7.53;;;8.60;99.90;;;;;;5113054;28;20428;-77
2022/01/29 07:33:28;;;;;;;13.88;7.22;;;8.60;99.90;;;;;;5079485;28;20051;-76
2022/01/29 07:35:55;;;;;;;12.07;7.00;;;8.50;99.90;;;;;;5113851;28;20040;-77
2022/01/29 07:38:21;;;;;;;15.93;6.68;;;8.70;99.90;;;;;;5113076;28;20061;-78
2022/01/29 07:40:47;;;;;;;11.98;6.65;;;8.60;99.90;;;;;;5115229;28;20035;-78
2022/01/29 07:43:13;;;;;;;10.98;6.55;;;8.60;99.90;;;;;;5083611;28;20044;-81
2022/01/29 07:45:39;;;;;;;13.77;6.93;;;8.40;99.90;;;;;;5117194;28;20059;-78
2022/01/29 07:48:05;;;;;;;11.63;6.90;;;8.50;99.90;;;;;;5100720;28;20043;-80
2022/01/29 07:50:31;;;;;;;11.55;6.63;;;8.60;99.90;;;;;;5099956;28;20145;-81
2022/01/29 07:52:59;;;;;;;12.65;6.68;;;8.70;99.90;;;;;;5118013;28;20052;-79
2022/01/29 07:55:26;;;;;;;11.40;6.50;;;8.60;99.90;;;;;;5117293;28;20054;-79
2022/01/29 07:57:52;;;;;;;11.35;6.82;;;8.50;99.90;;;;;;5117154;28;20051;-80
2022/01/29 08:00:18;;;;;;;11.90;6.53;;;8.80;99.90;;;;;;5117341;28;20046;-82
2022/01/29 08:02:44;;;;;;;11.07;6.75;;;8.60;99.90;;;;;;5117004;28;20479;-81
2022/01/29 08:05:10;;;;;;;11.90;6.85;;;8.60;99.90;;;;;;5117858;28;20039;-81
2022/01/29 08:07:38;;;;;;;13.20;7.90;;;8.60;99.90;;;;;;5117934;28;20082;-78
2022/01/29 08:10:07;;;;;;;17.13;7.35;;;8.60;99.90;;;;;;5099284;28;20104;-79
2022/01/29 08:12:34;;;;;;;11.10;6.75;;;8.60;99.90;;;;;;5116180;28;20044;-79
2022/01/29 08:15:00;;;;;;;12.52;7.03;;;8.60;99.90;;;;;;5100183;28;20101;-76
2022/01/29 08:17:26;;;;;;;11.90;6.43;;;9.20;99.90;;;;;;5117288;28;20513;-78
2022/01/29 08:19:52;;;;;;;12.45;6.95;;;8.60;99.90;;;;;;5117487;28;20055;-79
2022/01/29 08:22:18;;;;;;;13.93;7.28;;;8.70;99.90;;;;;;5099457;28;20494;-78
2022/01/29 08:24:44;;;;;;;14.38;7.47;;;9.20;99.90;;;;;;5099628;28;20104;-78
2022/01/29 08:27:09;;;;;;;11.82;7.25;;;8.40;99.90;;;;;;5082525;28;20532;-77
2022/01/29 08:29:35;;;;;;;10.63;5.68;;;8.50;99.90;;;;;;5082136;28;20115;-74
2022/01/29 08:32:02;;;;;;;12.65;6.72;;;8.50;99.90;;;;;;5117662;28;20047;-72
2022/01/29 08:34:28;;;;;;;12.00;7.00;;;8.60;99.90;;;;;;5117303;28;20127;-81
2022/01/29 08:37:04;;;;;;;14.52;6.75;;;8.50;99.90;;;;;;5099119;28;20134;-77
2022/01/29 08:39:30;;;;;;;13.98;7.05;;;8.50;99.90;;;;;;5117212;28;20097;-80
2022/01/29 08:41:56;;;;;;;14.07;6.70;;;8.50;99.90;;;;;;5117280;28;20468;-79
2022/01/29 08:44:22;;;;;;;11.98;6.07;;;8.60;99.90;;;;;;5082157;28;20122;-82
2022/01/29 08:46:47;;;;;;;12.60;6.50;;;9.00;99.90;;;;;;5099530;28;20092;-81
2022/01/29 08:49:13;;;;;;;16.20;6.78;;;8.60;99.90;;;;;;5117091;28;20500;-79
2022/01/29 08:51:39;;;;;;;12.35;6.80;;;8.60;99.90;;;;;;5115790;28;20049;-82
2022/01/29 08:54:05;;;;;;;12.10;6.57;;;8.70;99.90;;;;;;5098795;28;20067;-83
2022/01/29 08:56:31;;;;;;;12.98;6.70;;;9.20;99.90;;;;;;5100260;28;20054;-82
2022/01/29 08:58:57;;;;;;;12.40;6.25;;;8.80;99.90;;;;;;5115818;28;20127;-85
2022/01/29 09:01:23;;;;;;;11.45;5.95;;;8.80;99.90;;;;;;5117077;28;20115;-83
2022/01/29 09:03:49;;;;;;;12.50;6.53;;;9.00;99.90;;;;;;5115229;28;20050;-83
2022/01/29 09:06:15;;;;;;;11.63;5.53;;;8.80;99.90;;;;;;5115722;28;20043;-81
2022/01/29 09:08:45;;;;;;;10.07;5.60;;;9.00;99.90;;;;;;5081721;28;20047;-83
2022/01/29 09:11:11;;;;;;;10.63;5.72;;;8.80;99.90;;;;;;5099020;28;20044;-83
2022/01/29 09:13:37;;;;;;;10.68;5.88;;;9.30;99.90;;;;;;5115457;28;20043;-84
2022/01/29 09:16:03;;;;;;;10.75;4.93;;;8.90;99.90;;;;;;5098169;28;20116;-82
2022/01/29 09:18:28;;;;;;;8.82;4.85;;;9.00;99.90;;;;;;5098535;28;20097;-80
2022/01/29 09:20:54;;;;;;;7.30;4.50;;;8.90;99.90;;;;;;5082525;28;20055;-79
2022/01/29 09:23:20;;;;;;;7.10;4.65;;;8.90;99.90;;;;;;5116516;28;20105;-82
2022/01/29 09:25:46;;;;;;;10.10;4.60;;;8.90;99.90;;;;;;5116451;28;20079;-83
2022/01/29 09:28:13;;;;;;;10.18;4.55;;;9.00;99.90;;;;;;5081862;28;20096;-80
2022/01/29 09:30:40;;;;;;;9.75;4.53;;;9.30;99.90;;;;;;5115858;28;20039;-81
2022/01/29 09:33:05;;;;;;;9.93;4.88;;;9.10;99.90;;;;;;5098115;28;20039;-82
2022/01/29 09:35:31;;;;;;;7.93;4.18;;;9.20;99.90;;;;;;5116316;28;20048;-83
2022/01/29 09:37:57;;;;;;;8.15;4.20;;;9.10;99.90;;;;;;5081434;28;20086;-82
2022/01/29 09:40:23;;;;;;;8.57;3.58;;;9.50;99.90;;;;;;5082315;28;20404;-82
2022/01/29 09:42:51;;;;;;;8.35;3.00;;;9.20;99.90;;;;;;5115449;28;20031;-84
2022/01/29 09:45:19;;;;;;;9.27;3.47;;;9.20;99.90;;;;;;5098130;28;20043;-83
2022/01/29 09:47:46;;;;;;;6.63;3.55;;;9.20;99.90;;;;;;5116196;28;20040;-83
2022/01/29 09:50:15;;;;;;;7.75;2.90;;;9.20;99.90;;;;;;5097725;28;20551;-82
2022/01/29 09:52:42;;;;;;;7.35;2.63;;;9.40;99.90;;;;;;5097762;28;20058;-80
2022/01/29 09:55:08;;;;;;;6.38;3.08;;;9.30;99.90;;;;;;5114724;28;20101;-83
2022/01/29 09:57:35;;;;;;;5.03;2.30;;;9.30;99.90;;;;;;5097985;28;20483;-82
2022/01/29 10:00:01;;;;;;;6.85;3.03;;;9.40;99.90;;;;;;5114835;28;20382;-81
2022/01/29 10:02:27;;;;;;;5.57;2.65;;;9.40;99.90;;;;;;5114099;28;20118;-82
2022/01/29 10:04:57;;;;;;;4.93;2.38;;;9.80;99.90;;;;;;5080905;28;20431;-84
2022/01/29 10:07:29;;;;;;;6.45;2.78;;;9.40;99.90;;;;;;5114971;28;20122;-82
2022/01/29 10:09:56;;;;;;;5.88;2.50;;;9.50;99.90;;;;;;5115563;28;20035;-84
2022/01/29 10:12:24;;;;;;;4.03;2.10;;;9.50;99.90;;;;;;5114932;28;20059;-82
2022/01/29 10:14:51;;;;;;;5.68;2.40;;;9.50;99.90;;;;;;5098356;28;20048;-83
2022/01/29 10:17:43;;;;;;;7.05;2.47;;;9.60;99.90;;;;;;5098016;28;20044;-80
2022/01/29 10:20:26;;;;;;;5.72;2.42;;;9.60;99.90;;;;;;5113829;28;20479;-84
2022/01/29 10:23:02;;;;;;;6.85;2.03;;;9.70;99.90;;;;;;5113737;28;20043;-82
2022/01/29 10:25:31;;;;;;;5.55;2.05;;;9.70;99.90;;;;;;5098172;28;20141;-83
2022/01/29 10:28:11;;;;;;;4.68;1.92;;;9.50;99.90;;;;;;5113879;28;20367;-84
2022/01/29 10:30:49;;;;;;;4.18;2.20;;;9.80;99.90;;;;;;5113118;28;20153;-82
2022/01/29 10:33:17;;;;;;;3.63;2.13;;;9.60;99.90;;;;;;5113285;28;20078;-83
2022/01/29 10:35:44;;;;;;;6.50;2.38;;;9.60;99.90;;;;;;5114818;28;20054;-79
2022/01/29 10:38:10;;;;;;;6.45;2.30;;;9.90;99.90;;;;;;5115106;28;20047;-79
2022/01/29 10:40:38;;;;;;;5.22;2.08;;;9.70;99.90;;;;;;5096135;28;20073;-80
2022/01/29 10:43:04;;;;;;;4.65;1.85;;;9.60;99.90;;;;;;5113269;28;20090;-84
2022/01/29 10:45:35;;;;;;;3.05;2.03;;;9.70;99.90;;;;;;5111878;28;20070;-83
2022/01/29 10:48:04;;;;;;;4.95;2.00;;;9.50;99.90;;;;;;5114228;28;20387;-79
2022/01/29 10:50:32;;;;;;;5.43;1.70;;;9.60;99.90;;;;;;5096871;28;20083;-83
2022/01/29 10:53:25;;;;;;;6.35;1.95;;;9.90;99.90;;;;;;5115055;28;20055;-80
2022/01/29 10:55:59;;;;;;;3.80;1.20;;;9.70;99.90;;;;;;5113873;28;20443;-82
2022/01/29 10:58:24;;;;;;;5.55;1.70;;;9.70;99.90;;;;;;5112797;28;20044;-81
2022/01/29 11:01:13;;;;;;;5.78;1.35;;;9.60;99.90;;;;;;5113288;28;20043;-79
2022/01/29 11:03:39;;;;;;;4.38;1.25;;;10.50;99.90;;;;;;5112353;28;20088;-80
2022/01/29 11:06:08;;;;;;;3.88;1.48;;;9.70;99.90;;;;;;5114227;28;20079;-84
2022/01/29 11:08:35;;;;;;;4.05;1.23;;;9.80;99.90;;;;;;5096375;28;20130;-78
2022/01/29 11:11:01;;;;;;;5.03;1.40;;;9.60;99.90;;;;;;5113282;28;20036;-81
2022/01/29 11:13:28;;;;;;;2.55;1.00;;;9.80;99.90;;;;;;5112455;28;20075;-74
2022/01/29 11:15:56;;;;;;;6.90;1.20;;;9.80;99.90;;;;;;5113650;28;20059;-76
2022/01/29 11:18:26;;;;;;;5.07;1.10;;;9.80;99.90;;;;;;5114572;28;20535;-79
2022/01/29 11:20:52;;;;;;;5.65;1.20;;;9.90;99.90;;;;;;5113092;28;20108;-79
2022/01/29 11:23:19;;;;;;;2.95;1.10;;;10.10;99.90;;;;;;5112603;28;20483;-79
2022/01/29 11:25:45;;;;;;;1.85;0.90;;;9.90;99.90;;;;;;5112589;28;20050;-77
2022/01/29 11:28:14;;;;;;;5.65;1.20;;;9.80;99.90;;;;;;5095816;28;20040;-79
2022/01/29 11:30:45;;;;;;;3.72;1.00;;;10.00;99.90;;;;;;5112822;28;20047;-78
2022/01/29 11:33:11;;;;;;;3.17;1.10;;;9.90;99.90;;;;;;5114069;28;20047;-81
2022/01/29 11:36:06;;;;;;;3.83;1.10;;;9.80;99.90;;;;;;5096164;28;20047;-83
2022/01/29 11:38:33;;;;;;;3.90;1.38;;;10.10;99.90;;;;;;5095042;28;20491;-77
2022/01/29 11:41:02;;;;;;;3.40;0.93;;;9.90;99.90;;;;;;5113443;28;20042;-78
2022/01/29 11:43:30;;;;;;;4.40;1.10;;;9.90;99.90;;;;;;5113317;28;20043;-79
2022/01/29 11:46:15;;;;;;;3.42;0.90;;;9.90;99.90;;;;;;5095786;28;20054;-82
2022/01/29 11:48:53;;;;;;;4.85;1.20;;;9.50;99.90;;;;;;5096138;28;20039;-81
2022/01/29 11:51:45;;;;;;;3.10;1.00;;;9.90;99.90;;;;;;5112435;28;20044;-75
2022/01/29 11:54:16;;;;;;;6.20;1.40;;;10.00;99.90;;;;;;5112220;28;20051;-81
2022/01/29 11:56:44;;;;;;;6.60;1.30;;;10.00;99.90;;;;;;5096191;28;20450;-81
2022/01/29 11:59:26;;;;;;;5.63;1.40;;;10.00;99.90;;;;;;5112778;28;20317;-78
2022/01/29 12:01:59;;;;;;;5.70;1.10;;;10.00;99.90;;;;;;5112831;28;20047;-72
2022/01/29 12:04:47;;;;;;;5.57;1.00;;;10.00;99.90;;;;;;5112117;28;20047;-78
2022/01/29 12:07:18;;;;;;;4.45;1.00;;;10.00;99.90;;;;;;5113287;28;20407;-75
2022/01/29 12:09:49;;;;;;;3.60;1.00;;;10.10;99.90;;;;;;5114386;28;20409;-82
2022/01/29 12:12:26;;;;;;;5.10;1.00;;;10.00;99.90;;;;;;5112019;28;20321;-73
2022/01/29 12:14:53;;;;;;;4.05;0.98;;;10.10;99.90;;;;;;5095852;28;20043;-73
2022/01/29 12:17:45;;;;;;;5.18;0.95;;;10.20;99.90;;;;;;5113926;28;20040;-78
2022/01/29 12:20:13;;;;;;;4.32;0.82;;;10.20;99.90;;;;;;5113154;28;20036;-74
2022/01/29 12:22:41;;;;;;;3.38;0.70;;;10.20;99.90;;;;;;5111550;28;20050;-73
2022/01/29 12:25:09;;;;;;;6.05;0.88;;;10.60;99.90;;;;;;5112262;28;20044;-76
2022/01/29 12:27:48;;;;;;;3.15;0.90;;;10.40;99.90;;;;;;5115444;28;20039;-75
2022/01/29 12:30:19;;;;;;;2.20;0.80;;;10.40;99.90;;;;;;5115336;28;20500;-73
2022/01/29 12:33:03;;;;;;;4.10;0.88;;;10.50;99.90;;;;;;5099749;28;20054;-73
2022/01/29 12:35:49;;;;;;;3.75;0.80;;;10.40;99.90;;;;;;5116062;28;20055;-74
2022/01/29 12:38:27;;;;;;;5.43;0.77;;;10.40;99.90;;;;;;5116799;28;20363;-73
2022/01/29 12:41:03;;;;;;;5.13;0.98;;;10.40;99.90;;;;;;5117208;28;20043;-71
2022/01/29 12:43:37;;;;;;;3.17;0.90;;;10.70;99.90;;;;;;5100614;28;20046;-73
2022/01/29 12:46:17;;;;;;;2.90;0.75;;;10.50;99.90;;;;;;5120548;28;20122;-77
2022/01/29 12:49:06;;;;;;;3.47;0.80;;;10.50;99.90;;;;;;5116284;28;20039;-73
2022/01/29 12:51:48;;;;;;;5.47;0.73;;;10.50;99.90;;;;;;5116408;28;20039;-72
2022/01/29 12:54:14;;;;;;;3.72;0.60;;;10.60;99.90;;;;;;5115126;28;20047;-76
2022/01/29 12:56:40;;;;;;;4.07;0.80;;;10.70;99.90;;;;;;5114833;28;20694;-74
2022/01/29 12:59:08;;;;;;;3.30;0.63;;;10.60;99.90;;;;;;5116509;28;20040;-77
2022/01/29 13:01:36;;;;;;;3.42;0.80;;;10.70;99.90;;;;;;5116085;28;20502;-77
2022/01/29 13:04:08;;;;;;;6.95;0.90;;;10.70;99.90;;;;;;5115991;28;20071;-74